Time;durP1;ratioP1;P1;durP2;ratioP2;P2;SDS_P1;SDS_P2;PMS_P1;PMS_P2;Temp;Humidity;BMP_temperature;BMP_pressure;BME280_temperature;BME280_humidity;BME280_pressure;Samples;Min_cycle;Max_cycle;Signal;HPM_P1;HPM_P2
2022/11/03 00:02:07;;;;;;;12.40;4.40;;;8.00;99.90;;;;;;5082630;28;20095;-52
2022/11/03 00:04:34;;;;;;;8.90;4.22;;;7.90;99.90;;;;;;5081057;28;20163;-52
2022/11/03 00:07:00;;;;;;;19.95;5.50;;;7.80;99.90;;;;;;5078760;28;20076;-51
2022/11/03 00:09:27;;;;;;;16.85;5.82;;;7.70;99.90;;;;;;5081136;28;20119;-51
2022/11/03 00:11:54;;;;;;;16.50;5.85;;;7.60;99.90;;;;;;5081432;28;20037;-51
2022/11/03 00:14:20;;;;;;;12.30;4.70;;;7.60;99.90;;;;;;5082518;28;20044;-51
2022/11/03 00:16:47;;;;;;;9.13;4.13;;;7.60;99.90;;;;;;5077233;28;20049;-52
2022/11/03 00:19:15;;;;;;;9.43;4.57;;;7.60;99.90;;;;;;5085606;28;20340;-54
2022/11/03 00:21:43;;;;;;;11.45;3.95;;;7.70;99.90;;;;;;5080950;28;20040;-51
2022/11/03 00:24:11;;;;;;;11.38;4.68;;;7.70;99.90;;;;;;5084095;28;20033;-52
2022/11/03 00:26:38;;;;;;;12.98;5.78;;;7.70;99.90;;;;;;5104470;28;20090;-52
2022/11/03 00:29:07;;;;;;;12.00;4.70;;;7.70;99.90;;;;;;5072273;28;20094;-52
2022/11/03 00:31:36;;;;;;;13.52;4.90;;;7.70;99.90;;;;;;5082217;28;20036;-54
2022/11/03 00:34:03;;;;;;;13.95;5.57;;;7.70;99.90;;;;;;5076480;28;20037;-56
2022/11/03 00:36:42;;;;;;;13.80;5.30;;;7.70;99.90;;;;;;5079799;28;20131;-52
2022/11/03 00:39:09;;;;;;;15.75;5.43;;;7.70;99.90;;;;;;5081438;28;20036;-54
2022/11/03 00:41:36;;;;;;;13.77;5.55;;;7.70;99.90;;;;;;5093098;28;20040;-52
2022/11/03 00:44:03;;;;;;;14.55;6.22;;;7.60;99.90;;;;;;5086008;28;20048;-55
2022/11/03 00:46:33;;;;;;;13.73;5.93;;;7.60;99.90;;;;;;5083811;28;20068;-50
2022/11/03 00:49:00;;;;;;;13.10;5.40;;;7.60;99.90;;;;;;5092058;28;20052;-56
2022/11/03 00:51:32;;;;;;;12.15;5.00;;;7.60;99.90;;;;;;5073252;28;20504;-53
2022/11/03 00:54:00;;;;;;;12.82;5.18;;;7.50;99.90;;;;;;5083843;28;20093;-50
2022/11/03 00:56:36;;;;;;;7.07;3.67;;;7.50;99.90;;;;;;5092201;28;20079;-50
2022/11/03 00:59:04;;;;;;;9.98;4.30;;;7.40;99.90;;;;;;5092738;28;20052;-51
2022/11/03 01:01:34;;;;;;;8.55;4.00;;;7.30;99.90;;;;;;5082761;28;20036;-51
2022/11/03 01:06:56;;;;;;;12.65;5.93;;;7.20;99.90;;;;;;5092674;28;20071;-52
2022/11/03 01:09:29;;;;;;;14.70;5.25;;;7.20;99.90;;;;;;5083033;28;20102;-53
2022/11/03 01:12:26;;;;;;;16.48;5.78;;;7.20;99.90;;;;;;5092386;28;20097;-53
2022/11/03 01:14:53;;;;;;;11.05;5.28;;;7.20;99.90;;;;;;5092125;28;20754;-54
2022/11/03 01:17:23;;;;;;;11.75;5.72;;;7.30;99.90;;;;;;5089207;28;20511;-51
2022/11/03 01:19:50;;;;;;;17.02;5.90;;;7.30;99.90;;;;;;5072147;28;20072;-54
2022/11/03 01:22:17;;;;;;;;;;;7.30;99.90;;;;;;5071975;28;20068;-51
2022/11/03 01:24:45;;;;;;;12.45;5.40;;;7.30;99.90;;;;;;5083053;28;19958;-52
2022/11/03 01:27:17;;;;;;;19.27;6.10;;;7.30;99.90;;;;;;5091385;28;20067;-55
2022/11/03 01:29:44;;;;;;;13.30;5.55;;;7.20;99.90;;;;;;5090315;28;20047;-50
2022/11/03 01:32:11;;;;;;;15.55;5.22;;;7.30;99.90;;;;;;5080552;28;20090;-53
2022/11/03 01:34:38;;;;;;;14.18;4.75;;;7.30;99.90;;;;;;5071201;28;20090;-51
2022/11/03 01:37:05;;;;;;;10.50;3.65;;;7.30;99.90;;;;;;5083479;28;20036;-53
2022/11/03 01:39:32;;;;;;;;;;;7.30;99.90;;;;;;5090629;28;20043;-52
2022/11/03 01:41:59;;;;;;;6.05;2.25;;;7.30;99.90;;;;;;5092042;28;20348;-52
2022/11/03 01:44:49;;;;;;;10.27;3.03;;;7.30;99.90;;;;;;5087575;28;20074;-54
2022/11/03 01:47:34;;;;;;;8.73;3.92;;;7.20;99.90;;;;;;5066769;28;20094;-51
2022/11/03 01:50:07;;;;;;;13.85;4.40;;;7.20;99.90;;;;;;5091120;28;20064;-51
2022/11/03 01:52:45;;;;;;;19.35;5.15;;;7.20;99.90;;;;;;5091596;28;20079;-52
2022/11/03 01:55:20;;;;;;;11.50;4.40;;;7.20;99.90;;;;;;5088695;28;20113;-53
2022/11/03 01:57:54;;;;;;;11.95;5.13;;;7.20;99.90;;;;;;5085484;28;20040;-54
2022/11/03 02:00:21;;;;;;;12.27;4.93;;;7.20;99.90;;;;;;5091370;28;20140;-50
2022/11/03 02:02:49;;;;;;;11.20;4.57;;;7.20;99.90;;;;;;5091836;28;20043;-52
2022/11/03 02:05:18;;;;;;;9.43;3.03;;;7.30;99.90;;;;;;5088859;28;20105;-55
2022/11/03 02:08:09;;;;;;;10.75;3.13;;;7.20;99.90;;;;;;5091334;28;20072;-53
2022/11/03 02:10:37;;;;;;;7.25;3.20;;;7.20;99.90;;;;;;5083710;28;20085;-50
2022/11/03 02:13:08;;;;;;;;;;;7.20;99.90;;;;;;5091619;28;20079;-54
2022/11/03 02:15:37;;;;;;;15.32;6.30;;;7.20;99.90;;;;;;5088687;28;20455;-52
2022/11/03 02:18:05;;;;;;;10.00;4.22;;;7.20;99.90;;;;;;5087588;28;20040;-52
2022/11/03 02:20:32;;;;;;;7.28;3.20;;;7.30;99.90;;;;;;5091517;28;20396;-51
2022/11/03 02:23:20;;;;;;;8.13;2.95;;;7.30;99.90;;;;;;5090146;28;20637;-52
2022/11/03 02:25:50;;;;;;;7.68;3.78;;;7.30;99.90;;;;;;5084392;28;20078;-53
2022/11/03 02:28:24;;;;;;;6.15;3.00;;;7.30;99.90;;;;;;5088037;28;20064;-51
2022/11/03 02:30:57;;;;;;;5.75;2.40;;;7.20;99.90;;;;;;5085630;28;20075;-51
2022/11/03 02:33:47;;;;;;;6.03;3.05;;;7.10;99.90;;;;;;5084744;28;20072;-52
2022/11/03 02:36:40;;;;;;;5.50;3.05;;;7.00;99.90;;;;;;5088618;28;20040;-52
2022/11/03 02:39:20;;;;;;;5.65;3.10;;;6.90;99.90;;;;;;5090393;28;20485;-52
2022/11/03 02:41:48;;;;;;;6.85;3.33;;;6.80;99.90;;;;;;5081251;28;20087;-55
2022/11/03 02:44:18;;;;;;;8.02;3.67;;;6.60;99.90;;;;;;5088465;28;20036;-52
2022/11/03 02:46:50;;;;;;;6.72;3.40;;;6.50;99.90;;;;;;5090183;28;20044;-51
2022/11/03 02:49:17;;;;;;;6.57;2.80;;;6.50;99.90;;;;;;5085441;28;20045;-54
2022/11/03 02:51:44;;;;;;;7.35;3.53;;;6.50;99.90;;;;;;5088383;28;20040;-51
2022/11/03 02:54:17;;;;;;;5.57;3.22;;;6.40;99.90;;;;;;5095007;28;20105;-51
2022/11/03 02:56:52;;;;;;;6.20;2.83;;;6.50;99.90;;;;;;5093354;28;20075;-52
2022/11/03 02:59:25;;;;;;;5.25;2.70;;;6.50;99.90;;;;;;5093296;28;20036;-52
2022/11/03 03:02:00;;;;;;;9.30;3.08;;;6.50;99.90;;;;;;5094716;28;20044;-54
2022/11/03 03:04:30;;;;;;;7.57;2.60;;;6.50;99.90;;;;;;5094728;28;20036;-52
2022/11/03 03:07:06;;;;;;;9.88;2.95;;;6.50;99.90;;;;;;5085982;28;20477;-52
2022/11/03 03:09:43;;;;;;;6.75;3.22;;;6.60;99.90;;;;;;5074532;28;20122;-50
2022/11/03 03:12:11;;;;;;;10.13;4.32;;;6.70;99.90;;;;;;5094543;28;20566;-52
2022/11/03 03:14:41;;;;;;;6.53;3.28;;;6.70;99.90;;;;;;5093765;28;20105;-53
2022/11/03 03:17:27;;;;;;;8.38;2.92;;;6.70;99.90;;;;;;5094785;28;20064;-52
2022/11/03 03:20:23;;;;;;;7.75;2.80;;;6.60;99.90;;;;;;5082822;28;20036;-53
2022/11/03 03:23:01;;;;;;;11.98;2.78;;;6.60;99.90;;;;;;5074245;28;20091;-53
2022/11/03 03:25:45;;;;;;;6.13;2.63;;;6.60;99.90;;;;;;5078055;28;20040;-51
2022/11/03 03:28:24;;;;;;;5.93;2.83;;;6.60;99.90;;;;;;5094437;28;20032;-52
2022/11/03 03:30:54;;;;;;;7.38;2.60;;;6.60;99.90;;;;;;5087820;28;20095;-54
2022/11/03 03:33:22;;;;;;;7.82;2.70;;;6.60;99.90;;;;;;5077749;28;20898;-51
2022/11/03 03:35:51;;;;;;;9.15;3.15;;;6.50;99.90;;;;;;5088216;28;20054;-52
2022/11/03 03:38:24;;;;;;;10.02;3.60;;;6.60;99.90;;;;;;5087022;28;20071;-54
2022/11/03 03:40:56;;;;;;;6.95;4.30;;;6.60;99.90;;;;;;5087732;28;20136;-55
2022/11/03 03:43:25;;;;;;;8.77;4.28;;;6.60;99.90;;;;;;5093750;28;20068;-54
2022/11/03 03:45:56;;;;;;;13.55;4.45;;;6.60;99.90;;;;;;5104287;22;20032;-50
2022/11/03 03:48:23;;;;;;;14.90;4.28;;;6.60;99.90;;;;;;5072547;28;20040;-51
2022/11/03 03:50:50;;;;;;;6.95;4.35;;;6.60;99.90;;;;;;5073021;28;20127;-53
2022/11/03 03:53:18;;;;;;;10.82;5.18;;;6.60;99.90;;;;;;5073589;28;20127;-50
2022/11/03 03:55:50;;;;;;;11.65;4.60;;;6.60;99.90;;;;;;5072662;28;20094;-48
2022/11/03 03:58:17;;;;;;;9.07;4.10;;;6.60;99.90;;;;;;5093535;28;20048;-51
2022/11/03 04:00:44;;;;;;;11.57;5.70;;;6.60;99.90;;;;;;5093013;28;20040;-52
2022/11/03 04:03:19;;;;;;;9.68;4.50;;;6.50;99.90;;;;;;5086768;28;20115;-49
2022/11/03 04:05:46;;;;;;;8.07;4.57;;;6.50;99.90;;;;;;5093482;28;20472;-49
2022/11/03 04:08:14;;;;;;;;;;;6.50;99.90;;;;;;5093911;28;20070;-50
2022/11/03 04:22:15;;;;;;;13.48;5.03;;;6.50;99.90;;;;;;5088740;28;19974;-50
2022/11/03 04:24:30;;;;;;;12.45;5.10;;;6.50;99.90;;;;;;5092650;28;20039;-51
2022/11/03 04:27:04;;;;;;;17.02;5.15;;;6.60;99.90;;;;;;5089188;28;20071;-52
2022/11/03 04:29:31;;;;;;;14.90;5.25;;;6.60;99.90;;;;;;5085254;28;20068;-49
2022/11/03 04:31:58;;;;;;;13.40;5.00;;;6.60;99.90;;;;;;5082971;28;20541;-53
2022/11/03 04:34:25;;;;;;;11.98;5.43;;;6.60;99.90;;;;;;5092017;28;20412;-50
2022/11/03 04:36:51;;;;;;;11.80;6.05;;;6.60;99.90;;;;;;5091270;28;20071;-53
2022/11/03 04:39:19;;;;;;;13.43;6.57;;;6.60;99.90;;;;;;5085987;28;20135;-52
2022/11/03 04:41:46;;;;;;;16.25;6.93;;;6.60;99.90;;;;;;5091544;28;20105;-50
2022/11/03 04:44:15;;;;;;;14.00;6.38;;;6.60;99.90;;;;;;5090157;28;20106;-49
2022/11/03 04:46:44;;;;;;;13.18;6.22;;;6.70;99.90;;;;;;5089750;28;20557;-52
2022/11/03 04:49:19;;;;;;;16.88;6.55;;;6.60;99.90;;;;;;5091731;28;20036;-48
2022/11/03 04:51:47;;;;;;;13.40;5.38;;;6.60;99.90;;;;;;5090500;28;20040;-50
2022/11/03 04:54:22;;;;;;;13.90;6.57;;;6.70;99.90;;;;;;5090182;28;20048;-50
2022/11/03 04:56:49;;;;;;;17.77;7.07;;;6.60;99.90;;;;;;5091268;28;20101;-50
2022/11/03 04:59:16;;;;;;;17.30;7.05;;;6.60;99.90;;;;;;5091397;28;20493;-51
2022/11/03 05:01:44;;;;;;;20.33;7.25;;;6.60;99.90;;;;;;5091926;28;20109;-53
2022/11/03 05:04:15;;;;;;;17.63;7.68;;;6.60;99.90;;;;;;5084545;28;20075;-50
2022/11/03 05:06:52;;;;;;;13.35;6.30;;;6.50;99.90;;;;;;5092123;28;20056;-52
2022/11/03 05:09:23;;;;;;;15.07;5.80;;;6.50;99.90;;;;;;5092365;28;20134;-50
2022/11/03 05:11:50;;;;;;;16.20;6.00;;;6.50;99.90;;;;;;5088207;28;20138;-49
2022/11/03 05:14:21;;;;;;;16.20;6.90;;;6.40;99.90;;;;;;5091296;28;20064;-48
2022/11/03 05:16:52;;;;;;;14.90;6.45;;;6.40;99.90;;;;;;5091052;28;20468;-49
2022/11/03 05:19:36;;;;;;;17.30;6.65;;;6.40;99.90;;;;;;5066767;28;20040;-49
2022/11/03 05:22:04;;;;;;;16.60;5.70;;;6.40;99.90;;;;;;5084440;28;20089;-51
2022/11/03 05:24:32;;;;;;;14.55;6.00;;;6.40;99.90;;;;;;5090386;28;20044;-52
2022/11/03 05:26:59;;;;;;;14.98;6.25;;;6.30;99.90;;;;;;5091743;28;20033;-51
2022/11/03 05:29:34;;;;;;;12.73;5.85;;;6.30;99.90;;;;;;5082439;28;20040;-51
2022/11/03 05:32:01;;;;;;;14.85;6.97;;;6.30;99.90;;;;;;5085808;28;20122;-50
2022/11/03 05:34:37;;;;;;;16.23;6.05;;;6.30;99.90;;;;;;5090962;28;20503;-49
2022/11/03 05:37:23;;;;;;;12.95;6.07;;;6.20;99.90;;;;;;5090371;28;20040;-51
2022/11/03 05:39:54;;;;;;;;;;;6.30;99.90;;;;;;5087772;28;20048;-49
2022/11/03 05:42:21;;;;;;;14.55;6.25;;;6.30;99.90;;;;;;5086424;28;19982;-49
2022/11/03 05:44:50;;;;;;;11.75;5.43;;;6.30;99.90;;;;;;5089999;28;20040;-51
2022/11/03 05:47:23;;;;;;;10.98;6.00;;;6.30;99.90;;;;;;5089667;28;20075;-51
2022/11/03 05:49:53;;;;;;;10.52;5.57;;;6.30;99.90;;;;;;5088041;28;20089;-50
2022/11/03 05:52:22;;;;;;;13.50;5.65;;;6.30;99.90;;;;;;5091317;28;20520;-52
2022/11/03 05:54:50;;;;;;;13.73;6.35;;;6.30;99.90;;;;;;5077482;28;20083;-49
2022/11/03 05:57:17;;;;;;;15.10;6.32;;;6.30;99.90;;;;;;5090780;28;20050;-49
2022/11/03 05:59:48;;;;;;;14.85;7.72;;;6.30;99.90;;;;;;5087861;28;20059;-52
2022/11/03 06:02:41;;;;;;;18.30;7.57;;;6.30;99.90;;;;;;5070547;28;20094;-49
2022/11/03 06:05:18;;;;;;;15.38;6.90;;;6.30;99.90;;;;;;5088800;28;20039;-49
2022/11/03 06:07:45;;;;;;;23.10;8.60;;;6.40;99.90;;;;;;5090019;28;20070;-49
2022/11/03 06:16:56;;;;;;;12.63;7.68;;;6.40;99.90;;;;;;5061112;28;20136;-50
2022/11/03 06:19:27;;;;;;;16.25;7.18;;;6.50;99.90;;;;;;5050648;28;20048;-51
2022/11/03 06:21:57;;;;;;;12.63;5.53;;;6.40;99.90;;;;;;5047833;28;20117;-50
2022/11/03 06:24:30;;;;;;;14.30;6.22;;;6.40;99.90;;;;;;5028277;28;20112;-49
2022/11/03 06:26:57;;;;;;;17.60;6.18;;;6.50;99.90;;;;;;5053447;23;20114;-48
2022/11/03 06:29:24;;;;;;;13.48;6.35;;;6.40;99.90;;;;;;5047145;28;20041;-47
2022/11/03 06:31:52;;;;;;;;;;;6.30;99.90;;;;;;5046390;28;20080;-47
2022/11/03 06:34:35;;;;;;;12.82;5.57;;;6.40;99.90;;;;;;5050289;28;19920;-47
2022/11/03 06:37:15;;;;;;;13.60;5.80;;;6.40;99.90;;;;;;5026594;28;20045;-47
2022/11/03 06:39:42;;;;;;;14.90;5.25;;;6.50;99.90;;;;;;5024031;28;20096;-48
2022/11/03 06:42:12;;;;;;;12.40;6.07;;;6.50;99.90;;;;;;5030657;28;20120;-47
2022/11/03 06:44:44;;;;;;;12.55;6.70;;;6.50;99.90;;;;;;5030279;28;20068;-49
2022/11/03 06:47:28;;;;;;;18.73;8.13;;;6.50;99.90;;;;;;5022198;28;20038;-47
2022/11/03 06:49:59;;;;;;;15.07;6.20;;;6.50;99.90;;;;;;5030059;28;20076;-52
2022/11/03 06:52:33;;;;;;;15.52;6.93;;;6.60;99.90;;;;;;5029275;28;20497;-48
2022/11/03 06:55:13;;;;;;;12.20;6.35;;;6.60;99.90;;;;;;5028283;28;20045;-49
2022/11/03 06:57:45;;;;;;;10.80;5.78;;;6.70;99.90;;;;;;5030843;28;20045;-50
2022/11/03 07:00:25;;;;;;;16.75;6.50;;;6.70;99.90;;;;;;5030742;28;20119;-49
2022/11/03 07:03:18;;;;;;;15.80;6.03;;;6.70;99.90;;;;;;5022404;28;20046;-49
2022/11/03 07:05:44;;;;;;;16.60;6.30;;;6.80;99.90;;;;;;5030819;28;20095;-49
2022/11/03 07:08:22;;;;;;;15.60;7.18;;;6.80;99.90;;;;;;5026714;28;20042;-50
2022/11/03 07:10:56;;;;;;;14.40;6.15;;;6.80;99.90;;;;;;5030569;28;20472;-49
2022/11/03 07:13:23;;;;;;;11.10;6.20;;;6.80;99.90;;;;;;5027886;28;20112;-50
2022/11/03 07:15:51;;;;;;;16.17;7.00;;;6.80;99.90;;;;;;5027840;28;20041;-49
2022/11/03 07:18:20;;;;;;;;;;;6.90;99.90;;;;;;5028910;28;20065;-50
2022/11/03 07:20:47;;;;;;;19.60;7.15;;;6.90;99.90;;;;;;5028504;28;20396;-49
2022/11/03 07:23:19;;;;;;;16.70;6.63;;;6.90;99.90;;;;;;5021546;28;20042;-49
2022/11/03 07:25:53;;;;;;;12.05;6.38;;;7.00;99.90;;;;;;5029539;28;20069;-50
2022/11/03 07:28:24;;;;;;;14.13;5.63;;;7.00;99.90;;;;;;5026994;28;20045;-50
2022/11/03 07:30:50;;;;;;;16.38;6.45;;;7.10;99.90;;;;;;5030451;28;20464;-51
2022/11/03 07:33:25;;;;;;;16.52;6.25;;;7.20;99.90;;;;;;5021310;28;20069;-49
2022/11/03 07:35:56;;;;;;;12.73;6.45;;;7.20;99.90;;;;;;5022659;28;20034;-49
2022/11/03 07:38:46;;;;;;;11.63;5.03;;;7.30;99.90;;;;;;5028021;28;20501;-49
2022/11/03 07:41:18;;;;;;;14.85;5.68;;;7.50;99.90;;;;;;5027333;28;20065;-50
2022/11/03 07:43:56;;;;;;;9.15;5.40;;;7.60;99.90;;;;;;5033763;28;20057;-51
2022/11/03 07:46:24;;;;;;;13.40;6.15;;;7.70;99.90;;;;;;5033496;28;20151;-49
2022/11/03 07:49:02;;;;;;;12.00;5.95;;;7.80;99.90;;;;;;5031945;28;20039;-49
2022/11/03 07:51:33;;;;;;;10.48;5.15;;;7.90;99.90;;;;;;5033559;28;20049;-49
2022/11/03 07:54:20;;;;;;;11.18;5.78;;;7.90;99.90;;;;;;5031419;28;20084;-48
2022/11/03 07:56:54;;;;;;;15.15;7.20;;;8.00;99.90;;;;;;5027800;28;20068;-49
2022/11/03 07:59:31;;;;;;;17.92;6.43;;;8.00;99.90;;;;;;5032852;28;20049;-48
2022/11/03 08:01:59;;;;;;;9.70;4.75;;;8.10;99.90;;;;;;5033185;28;20045;-48
2022/11/03 08:04:29;;;;;;;10.63;4.95;;;8.10;99.90;;;;;;5027619;28;20063;-48
2022/11/03 08:06:55;;;;;;;12.40;5.28;;;8.30;99.90;;;;;;5033540;28;20069;-49
2022/11/03 08:09:22;;;;;;;9.15;5.45;;;8.30;99.90;;;;;;5033277;28;20069;-49
2022/11/03 08:11:50;;;;;;;13.57;5.28;;;8.40;99.90;;;;;;5031728;28;20072;-50
2022/11/03 08:14:16;;;;;;;14.70;7.85;;;8.60;99.90;;;;;;5033291;28;20050;-52
2022/11/03 08:16:43;;;;;;;9.48;4.57;;;8.70;99.90;;;;;;5031131;28;20081;-48
2022/11/03 08:19:10;;;;;;;14.38;5.20;;;8.70;99.90;;;;;;5033247;28;20137;-50
2022/11/03 08:21:37;;;;;;;9.68;4.80;;;8.80;99.90;;;;;;5031993;28;20124;-49
2022/11/03 08:24:04;;;;;;;18.85;6.68;;;8.90;99.90;;;;;;5033344;28;20494;-49
2022/11/03 08:26:31;;;;;;;8.95;4.30;;;8.80;99.90;;;;;;5029365;28;20072;-50
2022/11/03 08:28:58;;;;;;;9.32;4.43;;;8.80;99.90;;;;;;5033309;28;20580;-49
2022/11/03 08:31:24;;;;;;;8.40;4.32;;;8.80;99.90;;;;;;5030364;28;20045;-49
2022/11/03 08:33:51;;;;;;;7.45;4.60;;;9.00;99.90;;;;;;5026678;28;20045;-48
2022/11/03 08:36:19;;;;;;;7.63;5.22;;;9.10;99.90;;;;;;5031917;28;20127;-51
2022/11/03 08:38:46;;;;;;;13.52;6.75;;;9.30;99.90;;;;;;5026281;28;20073;-49
2022/11/03 08:41:13;;;;;;;8.23;4.30;;;9.50;99.90;;;;;;5032876;28;20171;-49
2022/11/03 08:43:39;;;;;;;8.63;4.35;;;9.60;99.90;;;;;;5031601;28;20060;-50
2022/11/03 08:46:06;;;;;;;11.88;4.57;;;9.80;99.90;;;;;;5030672;28;20037;-51
2022/11/03 08:48:44;;;;;;;15.23;4.82;;;9.90;99.90;;;;;;5026792;28;20339;-49
2022/11/03 08:51:12;;;;;;;7.25;3.97;;;9.90;99.90;;;;;;5033008;28;20041;-49
2022/11/03 08:53:44;;;;;;;7.68;4.35;;;9.90;99.90;;;;;;5032282;28;20037;-50
2022/11/03 08:56:11;;;;;;;11.50;4.10;;;9.90;99.90;;;;;;5017066;28;20103;-49
2022/11/03 08:58:42;;;;;;;8.35;4.55;;;9.80;99.90;;;;;;5032559;28;20064;-50
2022/11/03 09:01:09;;;;;;;11.75;4.45;;;9.90;99.90;;;;;;5024012;28;20042;-49
2022/11/03 09:03:37;;;;;;;11.85;4.50;;;10.00;99.90;;;;;;5032072;28;20141;-50
2022/11/03 09:06:04;;;;;;;9.55;4.45;;;10.00;99.90;;;;;;5031467;28;20102;-48
2022/11/03 09:08:31;;;;;;;11.50;5.20;;;10.20;99.90;;;;;;5028629;28;20073;-49
2022/11/03 09:11:17;;;;;;;12.13;5.35;;;10.50;99.90;;;;;;5030927;28;20144;-49
2022/11/03 09:13:44;;;;;;;11.88;5.18;;;10.80;99.90;;;;;;5031904;28;20100;-49
2022/11/03 09:16:11;;;;;;;8.32;4.78;;;10.80;99.90;;;;;;5032283;28;20107;-48
2022/11/03 09:18:37;;;;;;;10.13;4.95;;;10.90;99.90;;;;;;5021724;28;20494;-49
2022/11/03 09:21:05;;;;;;;13.40;4.85;;;10.80;99.90;;;;;;5027628;28;20044;-48
2022/11/03 09:23:31;;;;;;;11.18;3.85;;;10.80;99.90;;;;;;5029516;28;20281;-49
2022/11/03 09:25:58;;;;;;;5.65;3.53;;;10.80;99.90;;;;;;5031755;28;20033;-49
2022/11/03 09:28:25;;;;;;;8.25;3.75;;;10.80;99.90;;;;;;5031197;28;20041;-50
2022/11/03 09:30:51;;;;;;;10.85;4.20;;;10.80;99.90;;;;;;5031991;28;20556;-50
2022/11/03 09:33:18;;;;;;;6.63;3.97;;;10.90;99.90;;;;;;5023906;28;20061;-49
2022/11/03 09:35:45;;;;;;;9.40;3.35;;;11.10;99.90;;;;;;5032043;28;20441;-49
2022/11/03 09:38:12;;;;;;;6.97;3.15;;;11.20;99.90;;;;;;5025375;28;20071;-50
2022/11/03 09:40:38;;;;;;;7.95;3.58;;;11.30;99.90;;;;;;5027419;28;20103;-52
2022/11/03 09:43:05;;;;;;;4.57;2.97;;;11.40;99.90;;;;;;5030122;28;20045;-49
2022/11/03 09:45:32;;;;;;;6.25;3.13;;;11.60;99.90;;;;;;5029363;28;20393;-51
2022/11/03 09:48:01;;;;;;;6.35;3.50;;;11.70;99.90;;;;;;5031528;28;20123;-50
2022/11/03 09:50:27;;;;;;;9.00;3.65;;;11.70;99.90;;;;;;5030768;28;20514;-49
2022/11/03 09:52:56;;;;;;;8.63;3.50;;;11.70;99.90;;;;;;5026975;28;20045;-46
2022/11/03 09:55:25;;;;;;;10.13;4.07;;;11.80;99.90;;;;;;5030889;28;20104;-49
2022/11/03 09:57:59;;;;;;;8.93;4.35;;;11.90;99.90;;;;;;5026516;28;20038;-50
2022/11/03 10:00:26;;;;;;;8.60;3.28;;;12.00;99.90;;;;;;5031215;28;20045;-49
2022/11/03 10:02:54;;;;;;;9.43;3.95;;;12.10;99.90;;;;;;5027375;28;20045;-49
2022/11/03 10:05:28;;;;;;;8.80;3.38;;;12.00;99.90;;;;;;5029097;28;20045;-47
2022/11/03 10:08:05;;;;;;;11.90;3.65;;;12.00;99.90;;;;;;5027645;28;20041;-49
2022/11/03 10:10:33;;;;;;;7.95;3.78;;;12.10;99.90;;;;;;5023966;28;20124;-48
2022/11/03 10:13:00;;;;;;;9.43;4.10;;;12.20;99.90;;;;;;5030010;28;20041;-50
2022/11/03 10:15:27;;;;;;;8.27;3.83;;;12.40;99.90;;;;;;5028166;28;20081;-49
2022/11/03 10:17:55;;;;;;;10.95;4.45;;;12.70;99.90;;;;;;5031094;28;20073;-49
2022/11/03 10:20:22;;;;;;;9.07;4.78;;;12.90;99.90;;;;;;5026707;28;20117;-50
2022/11/03 10:22:52;;;;;;;;;;;13.10;99.90;;;;;;5030891;28;20045;-48
2022/11/03 10:25:25;;;;;;;10.80;3.53;;;13.30;99.90;;;;;;5030217;28;19956;-52
2022/11/03 10:28:19;;;;;;;7.47;3.67;;;13.40;99.90;;;;;;5029244;28;20046;-49
2022/11/03 10:30:56;;;;;;;7.72;3.50;;;13.40;99.90;;;;;;5031269;28;20060;-49
2022/11/03 10:33:54;;;;;;;7.30;3.72;;;13.30;99.90;;;;;;5030149;28;20099;-50
2022/11/03 10:36:26;;;;;;;10.05;4.13;;;13.30;99.90;;;;;;5028746;28;20076;-49
2022/11/03 10:38:54;;;;;;;10.25;3.60;;;13.30;99.90;;;;;;5031056;28;20043;-49
2022/11/03 10:41:23;;;;;;;9.27;3.35;;;13.40;99.90;;;;;;5031187;28;20052;-48
2022/11/03 10:44:17;;;;;;;9.18;3.40;;;13.40;99.90;;;;;;5028787;28;20042;-50
2022/11/03 10:46:58;;;;;;;8.15;3.42;;;13.40;99.90;;;;;;5030626;28;20046;-49
2022/11/03 10:49:34;;;;;;;8.07;3.78;;;13.40;99.90;;;;;;5030811;28;20076;-49
2022/11/03 10:52:19;;;;;;;7.22;3.22;;;13.60;99.90;;;;;;5029799;28;20184;-50
2022/11/03 10:54:48;;;;;;;9.02;3.35;;;13.80;99.90;;;;;;5029433;28;20059;-50
2022/11/03 10:57:15;;;;;;;11.85;4.35;;;13.90;99.90;;;;;;5030604;28;20501;-51
2022/11/03 10:59:44;;;;;;;10.65;4.70;;;14.00;99.90;;;;;;5028115;28;20057;-49
2022/11/03 11:02:20;;;;;;;7.72;3.60;;;14.00;99.90;;;;;;5030367;28;20095;-49
2022/11/03 11:04:50;;;;;;;10.07;4.13;;;14.00;99.90;;;;;;5029660;28;20444;-48
2022/11/03 11:07:25;;;;;;;11.73;5.47;;;14.20;99.90;;;;;;5021698;28;20269;-48
2022/11/03 11:09:53;;;;;;;8.95;4.63;;;14.30;99.90;;;;;;5019453;28;20061;-48
2022/11/03 11:12:24;;;;;;;11.20;4.38;;;14.20;99.90;;;;;;5032854;28;20041;-49
2022/11/03 11:14:56;;;;;;;21.52;8.90;;;14.30;99.90;;;;;;5034369;28;20045;-49
2022/11/03 11:17:43;;;;;;;11.70;4.28;;;14.40;99.90;;;;;;5030698;28;20041;-49
2022/11/03 11:20:29;;;;;;;11.57;6.18;;;14.60;99.90;;;;;;5034454;28;20037;-49
2022/11/03 11:23:28;;;;;;;14.65;4.53;;;14.70;99.90;;;;;;5027721;28;20042;-50
2022/11/03 11:26:08;;;;;;;8.07;4.00;;;14.80;99.90;;;;;;5028709;28;20041;-52
2022/11/03 11:28:43;;;;;;;9.65;3.60;;;14.80;99.90;;;;;;5012850;28;20050;-49
2022/11/03 11:31:29;;;;;;;8.15;3.80;;;14.90;99.90;;;;;;5014600;28;20080;-50
2022/11/03 11:34:22;;;;;;;10.02;3.65;;;15.00;99.90;;;;;;5021138;28;20069;-50
2022/11/03 11:36:54;;;;;;;6.43;3.33;;;15.00;99.90;;;;;;5033737;28;20080;-49
2022/11/03 11:39:27;;;;;;;7.20;3.78;;;15.00;99.90;;;;;;5027702;28;20103;-49
2022/11/03 11:42:13;;;;;;;13.63;4.32;;;14.90;99.90;;;;;;5028910;28;20045;-49
2022/11/03 11:44:46;;;;;;;13.85;4.15;;;15.00;99.90;;;;;;5032912;28;20515;-49
2022/11/03 11:47:44;;;;;;;6.07;3.30;;;15.00;99.90;;;;;;5034057;28;20554;-49
2022/11/03 11:50:19;;;;;;;6.60;3.70;;;15.00;99.90;;;;;;5027894;28;20394;-50
2022/11/03 11:53:08;;;;;;;9.88;3.85;;;15.10;99.90;;;;;;5033533;28;20077;-51
2022/11/03 11:55:42;;;;;;;7.80;3.55;;;15.10;99.90;;;;;;5032103;28;20049;-49
2022/11/03 11:58:26;;;;;;;7.10;3.45;;;15.10;99.90;;;;;;5044062;28;20046;-50
2022/11/03 12:01:18;;;;;;;9.45;3.90;;;15.20;99.90;;;;;;5032874;28;20072;-49
2022/11/03 12:03:46;;;;;;;16.15;3.95;;;15.20;99.90;;;;;;5029622;28;20046;-49
2022/11/03 12:06:14;;;;;;;13.55;4.22;;;15.30;99.90;;;;;;5026031;28;20500;-50
2022/11/03 12:08:41;;;;;;;10.35;4.22;;;15.20;99.90;;;;;;5033692;28;20120;-51
2022/11/03 12:11:10;;;;;;;7.63;4.13;;;15.20;99.90;;;;;;5027437;28;20210;-49
2022/11/03 12:13:50;;;;;;;5.95;3.47;;;15.20;99.90;;;;;;5028027;28;20073;-49
2022/11/03 12:16:30;;;;;;;10.80;4.28;;;15.20;99.90;;;;;;5032055;28;20085;-50
2022/11/03 12:19:36;;;;;;;7.55;3.78;;;15.20;99.90;;;;;;5033287;28;20096;-53
2022/11/03 12:22:08;;;;;;;9.73;3.67;;;15.40;99.90;;;;;;5029059;28;20379;-48
2022/11/03 12:24:36;;;;;;;11.32;4.28;;;15.50;99.90;;;;;;5032680;28;20045;-49
2022/11/03 12:27:38;;;;;;;8.38;4.90;;;15.50;99.90;;;;;;5059322;22;20053;-49
2022/11/03 12:30:14;;;;;;;10.70;6.28;;;15.50;99.90;;;;;;5066680;28;20045;-50
2022/11/03 12:32:40;;;;;;;10.45;6.85;;;15.30;99.90;;;;;;5072294;28;20076;-49
2022/11/03 12:35:08;;;;;;;10.32;6.32;;;15.10;99.90;;;;;;5073147;28;20074;-49
2022/11/03 12:37:35;;;;;;;13.02;6.82;;;14.90;99.90;;;;;;5061951;28;20300;-48
2022/11/03 12:40:02;;;;;;;;;;;14.80;99.90;;;;;;5062817;28;20041;-49
2022/11/03 12:42:29;;;;;;;11.57;6.97;;;14.70;99.90;;;;;;5072430;28;19978;-48
2022/11/03 12:44:55;;;;;;;11.05;6.28;;;14.70;99.90;;;;;;5072693;28;20040;-50
2022/11/03 12:47:22;;;;;;;10.38;6.22;;;14.70;99.90;;;;;;5072923;28;20079;-49
2022/11/03 12:49:49;;;;;;;8.57;5.80;;;14.70;99.90;;;;;;5062653;28;20121;-49
2022/11/03 12:52:16;;;;;;;9.48;6.30;;;14.60;99.90;;;;;;5071623;28;20045;-50
2022/11/03 12:54:43;;;;;;;8.38;5.90;;;14.50;99.90;;;;;;5072229;28;20120;-50
2022/11/03 12:57:10;;;;;;;11.35;6.90;;;14.50;99.90;;;;;;5061634;28;20439;-48
2022/11/03 12:59:36;;;;;;;10.75;5.78;;;14.50;99.90;;;;;;5072386;28;20045;-48
2022/11/03 13:02:03;;;;;;;10.38;6.38;;;14.40;99.90;;;;;;5071806;28;20044;-50
2022/11/03 13:04:30;;;;;;;10.70;6.75;;;14.20;99.90;;;;;;5053450;28;20128;-49
2022/11/03 13:06:57;;;;;;;9.25;6.63;;;14.20;99.90;;;;;;5064284;28;20044;-50
2022/11/03 13:09:24;;;;;;;8.05;6.47;;;14.10;99.90;;;;;;5058237;28;20522;-48
2022/11/03 13:14:36;;;;;;;10.40;6.53;;;14.00;99.90;;;;;;5058522;28;20465;-49
2022/11/03 13:17:03;;;;;;;11.27;6.72;;;14.00;99.90;;;;;;5071977;28;20040;-50
2022/11/03 13:19:30;;;;;;;10.60;7.13;;;14.00;99.90;;;;;;5066785;28;20059;-53
2022/11/03 13:21:56;;;;;;;12.35;6.93;;;14.10;99.90;;;;;;5063616;28;20075;-50
2022/11/03 13:24:23;;;;;;;11.27;6.75;;;14.00;99.90;;;;;;5071099;28;20512;-48
2022/11/03 13:26:50;;;;;;;12.23;6.38;;;13.90;99.90;;;;;;5071885;28;20094;-49
2022/11/03 13:29:17;;;;;;;10.60;6.32;;;13.90;99.90;;;;;;5062818;28;20048;-48
2022/11/03 13:31:43;;;;;;;8.32;5.93;;;13.80;99.90;;;;;;5071514;28;20080;-52
2022/11/03 13:34:10;;;;;;;12.02;6.60;;;13.80;99.90;;;;;;5070485;28;20065;-48
2022/11/03 13:36:37;;;;;;;14.00;7.15;;;13.70;99.90;;;;;;5062104;28;20071;-49
2022/11/03 13:39:03;;;;;;;8.77;6.38;;;13.60;99.90;;;;;;5071680;28;20064;-48